Time;durP1;ratioP1;P1;durP2;ratioP2;P2;SDS_P1;SDS_P2;PMS_P1;PMS_P2;Temp;Humidity;BMP_temperature;BMP_pressure;BME280_temperature;BME280_humidity;BME280_pressure;Samples;Min_cycle;Max_cycle;Signal;HPM_P1;HPM_P2
2022/08/29 00:01:11;;;;;;;5.77;2.90;;;20.30;58.90;;;23.10;44.82;101949.34;5056940;28;20217;-63
2022/08/29 00:03:41;;;;;;;6.63;3.03;;;20.30;59.10;;;23.08;45.12;101939.88;5056674;28;20210;-64
2022/08/29 00:06:12;;;;;;;7.20;3.73;;;20.20;59.30;;;23.07;45.36;101938.22;5056792;28;20217;-65
2022/08/29 00:08:40;;;;;;;6.63;2.90;;;20.20;59.50;;;23.05;45.47;101935.78;5056559;28;20212;-64
2022/08/29 00:11:08;;;;;;;4.57;2.70;;;20.20;59.70;;;23.04;45.63;101927.94;5056747;28;20194;-64
2022/08/29 00:13:35;;;;;;;7.20;3.43;;;20.20;59.80;;;23.01;45.78;101928.41;5056274;28;20485;-65
2022/08/29 00:16:03;;;;;;;6.90;3.13;;;20.20;60.00;;;22.99;45.68;101927.81;5056404;28;20196;-66
2022/08/29 00:18:32;;;;;;;8.03;3.17;;;20.20;60.30;;;22.97;45.89;101932.56;5057121;28;20214;-67
2022/08/29 00:21:02;;;;;;;5.40;2.90;;;20.20;60.80;;;22.95;46.10;101929.28;5056369;28;20225;-66
2022/08/29 00:23:30;;;;;;;7.63;2.93;;;20.10;61.10;;;22.92;46.49;101934.09;5072545;28;20218;-65
2022/08/29 00:25:57;;;;;;;5.00;3.13;;;20.20;61.20;;;22.90;46.71;101933.50;5057284;28;20196;-64
2022/08/29 00:28:25;;;;;;;7.63;2.80;;;20.10;61.00;;;22.89;46.64;101937.22;5056788;28;20218;-67
2022/08/29 00:30:53;;;;;;;9.47;3.73;;;20.10;61.30;;;22.90;46.54;101938.03;5089223;28;20527;-65
2022/08/29 00:33:20;;;;;;;9.33;3.20;;;20.10;61.60;;;22.89;46.43;101937.22;5056340;28;20224;-65
2022/08/29 00:35:47;;;;;;;8.80;3.50;;;20.10;61.50;;;22.87;47.43;101949.22;5056714;28;20546;-66
2022/08/29 00:38:18;;;;;;;7.90;3.47;;;20.00;62.20;;;22.84;47.10;101934.38;5056523;28;20271;-64
2022/08/29 00:40:49;;;;;;;4.97;2.77;;;20.00;62.10;;;22.84;47.44;101937.06;5055280;28;20210;-65
2022/08/29 00:43:21;;;;;;;7.43;3.20;;;20.00;62.30;;;22.83;47.46;101932.75;5056063;28;20260;-65
2022/08/29 00:46:02;;;;;;;7.10;2.73;;;20.00;62.30;;;22.80;47.20;101940.44;5081254;28;20556;-65
2022/08/29 00:48:32;;;;;;;5.20;2.87;;;20.00;62.60;;;22.78;47.54;101931.78;5076673;28;20688;-65
2022/08/29 00:51:06;;;;;;;6.53;3.53;;;20.00;62.80;;;22.77;47.49;101927.47;5076381;28;20193;-65
2022/08/29 00:53:47;;;;;;;3.97;2.33;;;20.00;62.80;;;22.73;47.85;101929.78;5076080;28;20209;-65
2022/08/29 00:56:17;;;;;;;6.73;3.07;;;20.00;63.10;;;22.72;47.83;101925.47;5069631;28;20200;-65
2022/08/29 00:58:52;;;;;;;10.17;3.00;;;19.90;63.10;;;22.68;47.67;101929.63;5056051;28;20292;-66
2022/08/29 01:01:21;;;;;;;6.50;2.73;;;19.90;63.30;;;22.65;47.69;101930.09;5055952;28;20219;-65
2022/08/29 01:03:50;;;;;;;7.20;3.30;;;19.90;63.40;;;22.62;47.92;101935.91;5056038;28;20706;-65
2022/08/29 01:06:19;;;;;;;3.93;2.60;;;19.90;63.70;;;22.61;48.26;101938.81;5056262;28;20193;-65
2022/08/29 01:08:48;;;;;;;6.83;3.93;;;19.80;63.60;;;22.59;48.54;101930.94;5056400;28;20190;-65
2022/08/29 01:14:14;;;;;;;4.53;3.10;;;19.80;63.90;;;22.52;48.71;101930.22;5055675;28;20193;-65
2022/08/29 01:16:42;;;;;;;7.77;3.33;;;19.80;64.20;;;22.52;48.74;101934.75;5055964;28;20667;-64
2022/08/29 01:19:23;;;;;;;6.33;3.60;;;19.70;64.30;;;22.45;48.64;101934.00;5055723;28;20218;-64
2022/08/29 01:22:05;;;;;;;5.17;2.87;;;19.70;64.50;;;22.43;48.97;101933.41;5055835;28;20205;-64
2022/08/29 01:24:41;;;;;;;6.50;3.17;;;19.70;64.70;;;22.36;49.19;101930.81;5055570;28;20619;-64
2022/08/29 01:27:11;;;;;;;6.23;2.83;;;19.60;64.70;;;22.35;48.89;101931.84;5055710;28;20194;-65
2022/08/29 01:29:40;;;;;;;4.37;3.07;;;19.60;65.50;;;22.33;49.06;101925.88;5055530;28;20197;-64
2022/08/29 01:32:08;;;;;;;5.63;2.90;;;19.60;65.00;;;22.31;49.63;101936.00;5054819;28;20678;-65
2022/08/29 01:34:35;;;;;;;6.07;3.07;;;19.60;65.30;;;22.31;49.60;101933.34;5055391;28;20214;-65
2022/08/29 01:37:06;;;;;;;6.33;3.00;;;19.50;65.40;;;22.32;49.81;101929.63;5055659;28;20190;-65
2022/08/29 01:39:38;;;;;;;7.33;3.07;;;19.50;65.60;;;22.35;49.70;101922.97;5055722;28;20677;-65
2022/08/29 01:42:09;;;;;;;5.97;2.77;;;19.50;65.80;;;22.35;49.65;101928.31;5056204;28;20248;-65
2022/08/29 01:44:38;;;;;;;10.90;4.13;;;19.50;65.90;;;22.35;49.81;101923.78;5054550;28;20205;-65
2022/08/29 01:47:07;;;;;;;7.27;3.63;;;19.60;66.00;;;22.35;49.92;101929.16;5055071;28;20204;-65
2022/08/29 01:49:36;;;;;;;9.07;3.70;;;19.60;66.20;;;22.36;49.80;101935.34;5087509;28;20194;-64
2022/08/29 01:52:08;;;;;;;5.37;3.17;;;19.60;66.30;;;22.35;50.21;101934.53;5053223;28;20205;-65
2022/08/29 01:54:38;;;;;;;4.90;3.10;;;19.60;66.50;;;22.33;49.80;101930.41;5054726;28;20265;-64
2022/08/29 01:57:07;;;;;;;8.13;3.60;;;19.50;66.50;;;22.31;49.93;101927.13;5054917;28;20198;-65
2022/08/29 01:59:40;;;;;;;10.43;3.47;;;19.50;66.50;;;22.26;50.14;101927.81;5055470;28;20301;-65
2022/08/29 02:02:17;;;;;;;6.87;3.30;;;19.50;66.70;;;22.21;50.31;101922.28;5055668;28;20750;-65
2022/08/29 02:04:46;;;;;;;6.30;3.00;;;19.50;66.90;;;22.18;50.55;101923.53;5055859;28;20197;-64
2022/08/29 02:07:16;;;;;;;6.80;3.13;;;19.40;67.00;;;22.19;51.00;101929.75;5057029;28;20186;-65
2022/08/29 02:09:46;;;;;;;7.37;3.40;;;19.40;67.20;;;22.19;50.71;101935.09;5073088;28;20637;-66
2022/08/29 02:12:15;;;;;;;7.50;3.50;;;19.50;67.40;;;22.21;50.88;101938.38;5058345;28;20229;-66
2022/08/29 02:14:44;;;;;;;5.13;3.60;;;19.40;67.40;;;22.21;50.33;101936.53;5062794;28;20190;-66
2022/08/29 02:17:11;;;;;;;7.33;3.60;;;19.40;67.30;;;22.19;50.32;101929.75;5062484;28;20190;-65
2022/08/29 02:19:39;;;;;;;7.07;3.47;;;19.40;67.50;;;22.14;51.08;101930.41;5054764;28;20296;-65
2022/08/29 02:22:09;;;;;;;8.30;2.93;;;19.40;67.30;;;22.11;50.75;101930.00;5069651;28;20688;-64
2022/08/29 02:24:37;;;;;;;6.23;3.50;;;19.40;67.60;;;22.11;50.83;101935.38;5054159;28;20694;-64
2022/08/29 02:27:06;;;;;;;9.27;3.57;;;19.40;68.60;;;22.11;50.69;101930.00;5054168;28;20200;-64
2022/08/29 02:29:36;;;;;;;6.90;3.73;;;19.30;67.90;;;22.09;51.43;101932.09;5054177;28;20584;-65
2022/08/29 02:32:07;;;;;;;10.70;3.93;;;19.30;68.10;;;22.05;51.29;101923.69;5053841;28;20240;-65
2022/08/29 02:34:35;;;;;;;7.10;3.17;;;19.30;68.10;;;22.05;51.03;101931.75;5054217;28;20558;-64
2022/08/29 02:37:04;;;;;;;8.27;3.50;;;19.30;68.20;;;22.03;51.30;101923.09;5053959;28;20545;-65
2022/08/29 02:39:32;;;;;;;6.73;3.30;;;19.20;68.30;;;22.04;51.48;101927.41;5054124;28;20209;-65
2022/08/29 02:41:59;;;;;;;8.83;3.30;;;19.30;68.50;;;22.05;51.58;101928.22;5053697;28;20221;-65
2022/08/29 02:44:28;;;;;;;5.90;3.60;;;19.30;68.70;;;22.03;51.02;101925.78;5053856;28;20190;-65
2022/08/29 02:46:56;;;;;;;8.13;3.30;;;19.20;68.70;;;22.00;51.34;101930.75;5072903;28;20196;-66
2022/08/29 02:49:24;;;;;;;8.17;3.83;;;19.20;68.70;;;21.97;51.44;101932.00;5074076;28;20264;-65
2022/08/29 02:51:51;;;;;;;5.47;3.07;;;19.20;69.70;;;21.95;51.73;101925.22;5073832;28;20212;-65
2022/08/29 02:54:18;;;;;;;12.13;3.40;;;19.20;69.00;;;21.95;51.75;101930.59;5074463;28;20201;-65
2022/08/29 02:56:46;;;;;;;8.40;3.27;;;19.10;70.10;;;21.98;52.23;101928.31;5074020;28;20562;-65
2022/08/29 02:59:13;;;;;;;7.73;3.77;;;19.20;69.70;;;22.02;52.39;101928.66;5075742;28;20223;-65
2022/08/29 03:01:42;;;;;;;5.93;3.30;;;19.10;69.70;;;22.05;52.09;101923.69;5080005;28;20291;-65
2022/08/29 03:04:10;;;;;;;8.47;3.80;;;19.20;69.70;;;22.06;52.10;101924.53;5077238;28;20579;-65
2022/08/29 03:06:37;;;;;;;10.33;4.20;;;19.20;69.60;;;22.07;51.61;101931.50;5074309;28;20537;-65
2022/08/29 03:09:04;;;;;;;4.83;3.17;;;19.20;69.70;;;22.08;51.82;101933.97;5074444;28;20185;-65
2022/08/29 03:11:31;;;;;;;7.07;3.40;;;19.20;69.80;;;22.08;51.77;101933.16;5076094;28;20200;-65
2022/08/29 03:14:00;;;;;;;7.27;3.63;;;19.20;69.50;;;22.07;51.94;101931.50;5074763;28;20193;-65
2022/08/29 03:16:28;;;;;;;7.93;3.67;;;19.20;69.60;;;22.06;52.06;101935.25;5073764;28;20217;-64
2022/08/29 03:18:57;;;;;;;5.90;3.27;;;19.20;69.80;;;22.05;51.90;101933.59;5073923;28;20266;-65
2022/08/29 03:21:27;;;;;;;5.47;3.40;;;19.20;69.80;;;22.02;52.45;101934.84;5073189;28;20188;-65
2022/08/29 03:23:55;;;;;;;5.37;3.00;;;19.20;69.80;;;22.01;52.11;101932.41;5073594;28;20193;-65
2022/08/29 03:26:23;;;;;;;12.97;3.47;;;19.20;70.00;;;21.98;52.20;101927.47;5074196;28;20193;-66
2022/08/29 03:28:51;;;;;;;6.03;3.57;;;19.10;70.00;;;21.95;52.08;101934.09;5074150;28;20196;-64
2022/08/29 03:31:19;;;;;;;6.30;2.90;;;19.10;70.00;;;21.93;52.42;101930.00;5073483;28;20264;-65
2022/08/29 03:33:47;;;;;;;6.10;3.17;;;19.10;70.30;;;21.89;52.84;101934.16;5065532;28;20194;-65
2022/08/29 03:36:16;;;;;;;8.70;4.10;;;19.00;70.30;;;21.86;52.44;101934.59;5053838;28;20193;-66
2022/08/29 03:38:45;;;;;;;6.90;3.83;;;19.00;70.40;;;21.84;52.76;101929.47;5056510;28;20675;-65
2022/08/29 03:41:20;;;;;;;8.37;4.23;;;19.00;70.60;;;21.81;53.04;101923.66;5054059;28;20698;-64
2022/08/29 03:43:48;;;;;;;7.60;3.93;;;19.00;71.20;;;21.81;52.79;101923.66;5053291;28;20182;-65
2022/08/29 03:46:15;;;;;;;6.33;3.33;;;19.00;71.10;;;21.83;52.80;101918.91;5067071;28;20201;-65
2022/08/29 03:48:43;;;;;;;8.40;3.90;;;19.00;71.20;;;21.85;53.09;101927.56;5088906;28;20190;-64
2022/08/29 03:51:10;;;;;;;199.00;21.77;;;19.00;71.40;;;21.91;53.17;101926.72;5072343;28;20623;-65
2022/08/29 03:53:39;;;;;;;27.43;5.97;;;19.00;72.00;;;21.99;52.94;101929.09;5072912;28;20699;-65
2022/08/29 03:56:08;;;;;;;15.07;3.90;;;19.10;72.00;;;22.03;53.42;101923.09;5072896;28;20268;-65
2022/08/29 03:58:45;;;;;;;8.03;3.80;;;19.10;72.00;;;22.08;53.27;101927.78;5072073;28;20201;-66
2022/08/29 04:01:21;;;;;;;10.90;5.37;;;19.20;72.10;;;22.13;53.27;101930.63;5071960;28;20530;-66
2022/08/29 04:03:49;;;;;;;9.13;4.53;;;19.20;72.00;;;22.13;53.42;101938.69;5088579;28;20220;-65
2022/08/29 04:06:16;;;;;;;10.90;4.23;;;19.20;72.10;;;22.12;53.51;101939.72;5072635;28;20224;-66
2022/08/29 04:08:46;;;;;;;7.03;3.77;;;19.20;72.20;;;22.09;53.61;101934.78;5072865;28;20603;-65
2022/08/29 04:11:16;;;;;;;11.27;3.93;;;19.20;72.40;;;22.09;53.44;101934.78;5072365;28;20627;-66
2022/08/29 04:13:44;;;;;;;6.40;3.60;;;19.20;72.50;;;22.07;53.84;101926.97;5072887;28;20216;-66
2022/08/29 04:16:15;;;;;;;9.07;4.73;;;19.20;72.50;;;22.12;54.36;101939.72;5074289;28;20196;-64
2022/08/29 04:18:43;;;;;;;7.77;4.10;;;19.20;72.80;;;22.16;53.61;101930.19;5076145;28;20224;-64
2022/08/29 04:21:11;;;;;;;8.47;3.73;;;19.30;73.00;;;22.19;53.99;101929.75;5076172;28;20197;-64
2022/08/29 04:23:39;;;;;;;10.30;4.33;;;19.30;72.90;;;22.20;53.90;101942.91;5075805;28;20283;-65
2022/08/29 04:26:15;;;;;;;6.10;3.83;;;19.30;72.90;;;22.19;53.93;101945.84;5075720;28;20546;-65
2022/08/29 04:29:04;;;;;;;5.83;3.73;;;19.30;72.90;;;22.24;53.60;101940.63;5075942;28;20185;-65
2022/08/29 04:31:31;;;;;;;7.43;3.87;;;19.40;73.10;;;22.24;53.95;101954.03;5055875;28;20201;-66
2022/08/29 04:33:59;;;;;;;10.37;4.27;;;19.40;73.00;;;22.24;53.73;101954.03;5056053;28;20534;-65
2022/08/29 04:36:27;;;;;;;10.07;4.83;;;19.40;73.10;;;22.22;54.10;101950.78;5055809;28;20205;-65
2022/08/29 04:38:54;;;;;;;10.50;4.00;;;19.30;72.90;;;22.20;54.00;101952.84;5055659;28;20266;-66
2022/08/29 04:41:23;;;;;;;10.13;3.93;;;19.30;73.00;;;22.21;54.41;101951.78;5055413;28;20275;-65
2022/08/29 04:43:50;;;;;;;7.77;3.93;;;19.30;73.30;;;22.28;54.20;101960.59;5055369;28;20206;-65
2022/08/29 04:46:18;;;;;;;10.43;5.07;;;19.40;73.50;;;22.36;54.59;101954.97;5055751;28;20205;-64
2022/08/29 04:48:51;;;;;;;8.70;4.00;;;19.40;73.60;;;22.42;54.15;101956.75;5055496;28;20280;-66
2022/08/29 04:51:20;;;;;;;10.67;4.70;;;19.50;73.80;;;22.51;54.26;101949.22;5055429;28;20190;-66
2022/08/29 04:53:49;;;;;;;11.13;4.63;;;19.50;73.70;;;22.55;53.83;101956.59;5055780;28;20190;-66
2022/08/29 04:56:17;;;;;;;12.43;4.43;;;19.60;73.50;;;22.56;53.89;101950.19;5055347;28;20193;-66
2022/08/29 04:58:49;;;;;;;12.30;4.73;;;19.60;73.70;;;22.59;53.90;101952.44;5054769;28;20663;-67
2022/08/29 05:01:20;;;;;;;8.67;4.70;;;19.60;73.80;;;22.62;54.08;101962.75;5055149;28;20530;-66
2022/08/29 05:03:50;;;;;;;10.20;4.87;;;19.70;73.90;;;22.66;54.32;101952.38;5055575;28;20612;-66
2022/08/29 05:06:21;;;;;;;7.47;4.40;;;19.70;74.00;;;22.72;54.31;101952.31;5055817;28;20194;-66
2022/08/29 05:08:50;;;;;;;10.23;4.77;;;19.80;74.00;;;22.78;54.29;101964.84;5056542;28;20178;-65
2022/08/29 05:11:28;;;;;;;14.10;5.33;;;19.80;73.90;;;22.80;54.23;101965.41;5055593;28;20270;-66
2022/08/29 05:13:58;;;;;;;10.20;4.93;;;19.90;74.10;;;22.81;54.14;101961.72;5055342;28;20194;-71
2022/08/29 05:16:28;;;;;;;12.13;5.80;;;19.90;73.90;;;22.82;54.38;101965.22;5055385;28;20182;-66
2022/08/29 05:18:58;;;;;;;10.67;5.13;;;19.90;74.00;;;22.81;54.02;101958.19;5055861;28;20229;-66
2022/08/29 05:21:30;;;;;;;11.47;5.43;;;19.90;74.10;;;22.80;54.28;101969.97;5055004;28;20659;-66
2022/08/29 05:24:04;;;;;;;11.27;5.40;;;19.90;74.20;;;22.78;54.53;101958.63;5054896;28;20217;-65
2022/08/29 05:26:35;;;;;;;12.87;5.13;;;19.90;74.20;;;22.76;54.57;101961.56;5054938;28;20553;-67
2022/08/29 05:29:08;;;;;;;11.63;4.57;;;19.80;74.40;;;22.75;54.74;101973.31;5055174;28;20185;-65
2022/08/29 05:31:36;;;;;;;8.13;4.90;;;19.80;74.50;;;22.77;55.06;101965.06;5055228;28;20214;-67
2022/08/29 05:34:04;;;;;;;12.27;5.10;;;19.80;74.90;;;22.77;54.86;101979.28;5055615;28;20194;-66
2022/08/29 05:36:52;;;;;;;13.37;6.27;;;19.80;74.80;;;22.78;54.79;101982.81;5054304;28;20201;-66
2022/08/29 05:39:19;;;;;;;14.07;5.17;;;19.80;75.20;;;22.80;55.00;101981.53;5054460;28;20271;-66
2022/08/29 05:41:46;;;;;;;8.90;5.13;;;19.80;75.10;;;22.82;55.02;101984.81;5054336;28;20213;-65
2022/08/29 05:44:15;;;;;;;12.23;4.63;;;19.90;75.70;;;22.84;55.25;101987.28;5054577;28;20593;-65
2022/08/29 05:46:42;;;;;;;10.07;4.70;;;19.90;75.90;;;22.89;55.50;101984.75;5054315;28;20204;-65
2022/08/29 05:49:10;;;;;;;10.60;4.87;;;19.90;76.00;;;22.96;55.68;101981.97;5054204;28;20182;-66
2022/08/29 05:51:37;;;;;;;12.50;5.37;;;20.00;77.10;;;23.02;55.71;101983.75;5056657;28;20550;-66
2022/08/29 05:54:06;;;;;;;13.97;6.00;;;20.00;76.50;;;23.07;55.89;101991.97;5058796;28;20213;-65
2022/08/29 05:56:34;;;;;;;8.63;5.50;;;20.00;76.50;;;23.13;55.54;101999.13;5058653;28;20186;-66
2022/08/29 05:59:01;;;;;;;10.63;5.93;;;20.10;76.50;;;23.17;55.63;101994.94;5059210;28;20194;-66
2022/08/29 06:01:33;;;;;;;21.67;16.17;;;20.20;76.50;;;23.19;55.28;102007.09;5055037;28;20198;-65
2022/08/29 06:04:01;;;;;;;16.30;7.37;;;20.20;76.40;;;23.24;55.48;102001.03;5054341;28;20197;-66
2022/08/29 06:06:29;;;;;;;13.67;6.60;;;20.20;76.20;;;23.26;55.31;102001.63;5054647;28;20194;-66
2022/08/29 06:08:58;;;;;;;11.97;6.20;;;20.20;76.30;;;23.33;55.48;102007.75;5054263;28;20186;-66
2022/08/29 06:11:29;;;;;;;10.33;5.63;;;20.30;76.30;;;23.41;55.37;102004.78;5054011;28;20531;-66
2022/08/29 06:13:58;;;;;;;11.67;6.27;;;20.40;76.50;;;23.51;55.37;101999.63;5054491;28;20270;-66
2022/08/29 06:16:28;;;;;;;13.17;6.27;;;20.40;76.20;;;23.66;54.99;102008.13;5069781;28;20304;-65
2022/08/29 06:18:59;;;;;;;13.93;6.10;;;20.50;76.00;;;23.78;54.69;102008.97;5054564;28;20201;-66
2022/08/29 06:21:26;;;;;;;11.30;5.90;;;20.60;75.70;;;23.86;54.17;102008.66;5054143;28;20541;-65
2022/08/29 06:23:54;;;;;;;13.00;5.23;;;20.70;75.30;;;23.94;54.02;102010.16;5054116;28;20257;-65
2022/08/29 06:26:22;;;;;;;13.40;5.50;;;20.80;75.30;;;24.04;53.78;102005.84;5054413;28;20194;-66
2022/08/29 06:28:49;;;;;;;12.30;5.83;;;20.90;74.90;;;24.11;53.55;102021.91;5053152;28;20217;-66
2022/08/29 06:31:20;;;;;;;10.83;5.30;;;21.00;74.40;;;24.12;53.50;102008.25;5053142;28;20190;-65
2022/08/29 06:33:50;;;;;;;12.30;6.47;;;21.00;74.20;;;24.14;53.00;102011.53;5053632;28;20198;-65
2022/08/29 06:36:20;;;;;;;10.10;5.80;;;21.00;74.00;;;24.14;53.24;102016.91;5053787;28;20178;-65
2022/08/29 06:38:47;;;;;;;15.43;6.73;;;21.00;74.00;;;24.14;53.33;102011.53;5052751;28;20281;-65
2022/08/29 06:41:17;;;;;;;15.53;6.10;;;21.10;73.90;;;24.14;53.40;102016.91;5053661;28;20227;-65
2022/08/29 06:43:44;;;;;;;13.40;8.53;;;21.10;73.90;;;24.13;53.20;102020.63;5052887;28;20186;-66
2022/08/29 06:46:21;;;;;;;13.43;6.33;;;21.10;73.90;;;24.14;53.23;102016.09;5066699;28;20219;-65
2022/08/29 06:48:49;;;;;;;13.07;6.77;;;21.10;74.10;;;24.17;53.05;102021.84;5073856;28;20173;-65
2022/08/29 06:51:19;;;;;;;13.20;6.77;;;21.10;74.20;;;24.25;53.52;102027.91;5073419;28;20314;-64
2022/08/29 06:53:47;;;;;;;9.20;6.13;;;21.10;74.20;;;24.33;53.07;102032.94;5089135;28;20186;-66
2022/08/29 06:56:16;;;;;;;12.40;6.90;;;21.20;74.40;;;24.46;52.85;102030.03;5073915;28;20200;-66
2022/08/29 06:58:44;;;;;;;13.03;6.63;;;21.20;74.10;;;24.55;52.86;102024.06;5074174;28;20264;-67
2022/08/29 07:01:17;;;;;;;10.97;5.87;;;21.30;73.90;;;24.65;52.98;102028.84;5089100;28;20217;-66
2022/08/29 07:03:45;;;;;;;14.17;7.23;;;21.40;73.80;;;24.71;52.14;102030.59;5073646;28;20185;-65
2022/08/29 07:06:16;;;;;;;18.00;7.70;;;21.50;73.40;;;24.75;52.53;102029.03;5073246;28;20197;-66
2022/08/29 07:08:45;;;;;;;12.50;7.30;;;21.60;73.20;;;24.80;52.64;102026.50;5073664;28;20197;-66
2022/08/29 07:11:22;;;;;;;16.77;8.03;;;21.70;73.10;;;24.80;52.19;102026.50;5073335;28;20188;-65
2022/08/29 07:13:50;;;;;;;13.23;7.60;;;21.70;72.90;;;24.83;52.18;102031.41;5073766;28;20196;-65
2022/08/29 07:16:17;;;;;;;15.13;7.37;;;21.70;72.80;;;24.88;52.56;102034.22;5073272;28;20188;-65
2022/08/29 07:18:46;;;;;;;14.03;6.90;;;21.70;72.80;;;24.91;52.07;102022.97;5066361;28;20629;-66
2022/08/29 07:21:18;;;;;;;19.37;7.90;;;21.80;73.70;;;24.95;51.98;102034.91;5053285;28;20216;-66
2022/08/29 07:23:49;;;;;;;14.50;6.77;;;21.80;72.80;;;24.99;52.21;102025.28;5052838;28;20269;-59
2022/08/29 07:26:20;;;;;;;12.80;7.17;;;21.80;72.80;;;25.04;51.71;102027.25;5052377;28;20189;-60
2022/08/29 07:28:49;;;;;;;15.70;7.87;;;21.90;72.70;;;25.10;51.87;102037.09;5051907;28;20187;-58
2022/08/29 07:31:18;;;;;;;17.40;7.80;;;21.90;72.60;;;25.12;52.43;102032.28;5051761;28;20205;-59
2022/08/29 07:33:47;;;;;;;14.00;7.23;;;22.00;72.80;;;25.13;51.64;102033.91;5052366;28;20189;-59
2022/08/29 07:36:28;;;;;;;11.93;6.33;;;22.00;72.70;;;25.20;52.07;102035.41;5053078;28;20216;-60
2022/08/29 07:38:58;;;;;;;15.80;7.60;;;22.00;72.70;;;25.44;52.15;102037.00;5052434;28;20204;-58
2022/08/29 07:41:27;;;;;;;13.37;6.60;;;22.10;72.60;;;25.92;50.84;102033.81;5052267;28;20214;-59
2022/08/29 07:43:57;;;;;;;15.77;7.80;;;22.30;72.90;;;26.28;50.62;102024.44;5051662;28;20220;-60
2022/08/29 07:46:25;;;;;;;13.77;7.27;;;22.50;72.20;;;26.47;49.79;102028.53;5066211;28;20220;-58
2022/08/29 07:48:53;;;;;;;23.10;8.73;;;22.70;71.50;;;26.79;49.47;102023.31;5071803;28;20273;-58
2022/08/29 07:51:25;;;;;;;11.30;7.07;;;23.00;71.30;;;27.26;48.25;102020.91;5074907;28;20197;-58
2022/08/29 07:53:54;;;;;;;17.17;8.10;;;23.20;70.60;;;27.57;47.45;102028.31;5064763;28;20208;-57
2022/08/29 07:56:26;;;;;;;13.60;6.77;;;23.50;69.60;;;28.14;46.90;102026.69;5055816;28;20280;-58
2022/08/29 07:58:56;;;;;;;12.17;7.03;;;23.80;68.70;;;28.45;45.21;102026.88;5055200;28;20198;-59
2022/08/29 08:01:41;;;;;;;6.60;4.90;;;24.10;67.00;;;28.52;44.22;102030.16;5055244;28;20569;-59
2022/08/29 08:04:13;;;;;;;8.80;4.97;;;24.40;65.10;;;28.55;44.29;102026.94;5052925;28;20200;-56
2022/08/29 08:06:42;;;;;;;7.73;5.17;;;24.70;64.30;;;29.05;43.46;102024.47;5064116;28;20201;-59
2022/08/29 08:09:13;;;;;;;6.33;4.07;;;24.90;63.70;;;29.36;42.43;102026.22;5063127;28;20201;-61
2022/08/29 08:11:42;;;;;;;8.90;4.87;;;25.20;62.50;;;29.62;41.88;102029.00;5054905;28;20694;-59
2022/08/29 08:14:10;;;;;;;5.77;4.13;;;25.40;61.60;;;30.30;40.59;102027.66;5059022;28;20272;-58
2022/08/29 08:16:38;;;;;;;6.10;4.30;;;25.70;61.30;;;31.26;39.18;102028.97;5052741;28;20709;-60
2022/08/29 08:19:11;;;;;;;5.40;3.60;;;26.20;60.20;;;32.04;37.90;102026.31;5069638;28;20231;-59
2022/08/29 08:21:39;;;;;;;5.73;4.00;;;26.70;58.50;;;32.39;36.75;102033.31;5052662;28;20217;-58
2022/08/29 08:24:16;;;;;;;6.80;3.10;;;27.20;56.80;;;32.70;35.63;102029.19;5050102;28;20202;-59
2022/08/29 08:26:48;;;;;;;10.77;3.53;;;27.60;55.30;;;33.21;35.00;102032.09;5054701;28;20662;-65
2022/08/29 08:29:16;;;;;;;4.83;2.93;;;27.90;54.20;;;33.55;33.99;102031.88;5054601;28;20204;-64
2022/08/29 08:31:45;;;;;;;5.07;2.80;;;28.30;53.00;;;33.51;34.02;102036.28;5055481;28;20224;-64
2022/08/29 08:34:14;;;;;;;4.17;2.93;;;28.50;52.20;;;33.28;34.15;102041.53;5052156;28;20197;-52
2022/08/29 08:36:44;;;;;;;4.27;3.20;;;28.70;51.00;;;32.82;33.50;102043.22;5053968;28;20189;-52
2022/08/29 08:39:12;;;;;;;3.93;2.37;;;28.60;49.40;;;32.32;33.59;102046.47;5045410;28;20700;-53
2022/08/29 08:41:52;;;;;;;3.47;2.70;;;28.30;49.10;;;31.69;35.13;102051.88;5051116;28;20246;-53
2022/08/29 08:44:59;;;;;;;5.43;2.67;;;28.10;49.70;;;30.98;36.16;102053.34;5052407;28;20221;-66
2022/08/29 08:47:36;;;;;;;3.33;3.03;;;27.70;50.40;;;30.55;36.91;102060.25;5041149;28;20629;-64
2022/08/29 08:50:13;;;;;;;4.60;3.03;;;27.40;50.90;;;30.13;37.19;102057.84;5044702;28;20185;-64
2022/08/29 08:52:47;;;;;;;5.83;3.23;;;27.10;51.30;;;29.88;37.72;102060.56;5066310;28;20225;-65
2022/08/29 08:55:27;;;;;;;3.00;2.70;;;26.80;52.20;;;29.80;37.65;102058.38;5064936;28;20185;-64
2022/08/29 08:58:08;;;;;;;4.87;2.50;;;26.60;52.80;;;29.76;38.09;102057.25;5053558;28;20197;-64
2022/08/29 09:00:45;;;;;;;3.27;2.57;;;26.40;53.50;;;30.21;38.23;102060.03;5055575;28;20267;-64
2022/08/29 09:03:53;;;;;;;3.40;2.83;;;26.40;54.30;;;30.95;37.04;102064.81;5050739;28;20260;-65
2022/08/29 09:06:42;;;;;;;3.13;1.90;;;26.50;54.10;;;31.30;35.88;102064.63;4974865;28;20216;-64
2022/08/29 09:09:26;;;;;;;2.70;2.50;;;26.90;52.20;;;31.36;35.22;102056.16;5070751;28;20196;-64
2022/08/29 09:12:13;;;;;;;2.73;2.33;;;27.10;51.30;;;31.54;34.12;102062.91;5055050;28;20720;-63
2022/08/29 09:15:03;;;;;;;2.80;2.60;;;27.20;50.50;;;31.90;32.77;102053.34;5056333;28;20200;-65
2022/08/29 09:17:41;;;;;;;2.40;2.20;;;27.50;48.60;;;31.95;32.00;102066.16;5054401;28;20194;-64
2022/08/29 09:20:14;;;;;;;2.73;2.53;;;27.50;47.70;;;31.72;32.46;102064.94;5054204;28;20216;-65
2022/08/29 09:22:57;;;;;;;4.07;2.50;;;27.60;47.80;;;31.58;32.59;102060.41;5055934;28;20218;-65
2022/08/29 09:25:28;;;;;;;5.03;2.37;;;27.60;47.60;;;31.66;32.89;102057.91;5036719;28;20194;-65
2022/08/29 09:27:57;;;;;;;3.37;2.27;;;27.60;48.10;;;31.94;32.61;102062.59;5048680;28;20228;-66
2022/08/29 09:30:30;;;;;;;1.90;1.80;;;27.70;48.20;;;32.22;32.82;102055.56;5069560;28;20276;-65
2022/08/29 09:33:03;;;;;;;1.17;1.10;;;27.80;48.00;;;32.43;32.59;102058.91;5055212;28;20213;-65
2022/08/29 09:35:38;;;;;;;1.97;1.80;;;28.00;47.30;;;32.59;32.26;102058.47;5040853;28;20766;-64
2022/08/29 09:38:17;;;;;;;2.10;1.70;;;28.20;47.20;;;32.88;31.48;102052.97;5041725;28;20198;-65
2022/08/29 09:40:51;;;;;;;2.00;1.80;;;28.40;47.00;;;32.96;31.38;102052.31;5035145;28;20205;-66
2022/08/29 09:43:24;;;;;;;1.87;1.53;;;28.60;46.20;;;32.78;31.03;102062.06;5051511;28;20225;-64
2022/08/29 09:46:13;;;;;;;2.67;1.67;;;28.60;45.80;;;32.37;31.94;102060.06;5052008;28;20221;-66
2022/08/29 09:48:48;;;;;;;2.00;1.80;;;28.60;45.20;;;32.08;32.29;102054.59;5069259;28;20202;-64
2022/08/29 09:51:25;;;;;;;1.80;1.70;;;28.40;45.50;;;31.70;32.42;102050.78;5063974;28;20243;-65
2022/08/29 09:54:10;;;;;;;2.67;1.50;;;28.30;45.70;;;31.37;32.95;102051.53;5050492;28;20638;-64
2022/08/29 09:56:48;;;;;;;2.60;2.40;;;28.10;45.90;;;31.08;33.22;102056.03;5032531;28;20194;-64
2022/08/29 09:59:24;;;;;;;3.97;2.10;;;27.90;46.40;;;30.86;33.98;102050.13;5036686;28;20206;-64
2022/08/29 10:02:18;;;;;;;1.53;1.43;;;27.60;46.80;;;30.66;33.87;102051.00;5050618;28;20308;-64
2022/08/29 10:04:51;;;;;;;3.33;1.40;;;27.50;47.40;;;30.59;34.36;102051.28;5033016;28;20539;-63
2022/08/29 10:07:22;;;;;;;1.73;1.63;;;27.30;47.90;;;30.71;34.54;102054.50;5044967;28;20542;-64
2022/08/29 10:10:03;;;;;;;3.73;1.70;;;27.20;48.40;;;31.14;33.87;102052.19;5074322;28;20173;-64
2022/08/29 10:12:49;;;;;;;2.97;1.83;;;27.30;49.00;;;31.74;33.36;102046.41;5049301;28;20213;-64
2022/08/29 10:15:26;;;;;;;2.17;1.97;;;27.50;48.60;;;32.40;32.50;102038.47;5086425;28;20647;-65
2022/08/29 10:18:29;;;;;;;2.73;2.53;;;27.70;48.20;;;33.14;31.24;102048.03;5063945;28;20224;-64
2022/08/29 10:21:14;;;;;;;2.90;2.70;;;28.10;47.00;;;33.38;30.24;102048.78;5054053;28;20301;-64
2022/08/29 10:24:00;;;;;;;2.47;2.20;;;28.40;45.60;;;33.42;30.15;102049.81;5054920;28;20197;-64
2022/08/29 10:26:45;;;;;;;3.23;2.27;;;28.70;45.00;;;33.53;29.75;102053.19;5050025;28;20194;-64
2022/08/29 10:29:29;;;;;;;3.37;2.40;;;28.80;43.90;;;33.61;29.71;102055.31;5061485;28;20203;-63
2022/08/29 10:32:13;;;;;;;2.77;2.57;;;29.00;43.30;;;33.72;29.52;102075.88;5064092;28;20218;-65